sensor_id;sensor_type;location;lat;lon;timestamp;temperature;humidity
23081;DHT22;11708;50.570;8.532;2023-01-24T00:01:41;3.20;99.90
23081;DHT22;11708;50.570;8.532;2023-01-24T00:04:07;3.20;99.90
23081;DHT22;11708;50.570;8.532;2023-01-24T00:06:32;3.10;99.90
23081;DHT22;11708;50.570;8.532;2023-01-24T00:08:58;3.10;99.90
23081;DHT22;11708;50.570;8.532;2023-01-24T00:11:23;3.10;99.90
23081;DHT22;11708;50.570;8.532;2023-01-24T00:13:49;3.10;99.90
23081;DHT22;11708;50.570;8.532;2023-01-24T00:16:17;3.10;99.90
23081;DHT22;11708;50.570;8.532;2023-01-24T00:18:44;3.10;99.90
23081;DHT22;11708;50.570;8.532;2023-01-24T00:21:13;3.00;99.90
23081;DHT22;11708;50.570;8.532;2023-01-24T00:23:44;3.00;99.90
23081;DHT22;11708;50.570;8.532;2023-01-24T00:26:10;2.90;99.90
23081;DHT22;11708;50.570;8.532;2023-01-24T00:28:36;3.00;99.90
23081;DHT22;11708;50.570;8.532;2023-01-24T00:31:03;2.90;99.90
23081;DHT22;11708;50.570;8.532;2023-01-24T00:35:55;2.90;99.90
23081;DHT22;11708;50.570;8.532;2023-01-24T00:38:21;2.90;99.90
23081;DHT22;11708;50.570;8.532;2023-01-24T00:40:47;2.80;99.90
23081;DHT22;11708;50.570;8.532;2023-01-24T00:43:13;2.80;99.90
23081;DHT22;11708;50.570;8.532;2023-01-24T00:45:39;2.80;99.90
23081;DHT22;11708;50.570;8.532;2023-01-24T00:48:06;2.80;99.90
23081;DHT22;11708;50.570;8.532;2023-01-24T00:50:32;2.80;99.90
23081;DHT22;11708;50.570;8.532;2023-01-24T00:52:58;2.80;99.90
23081;DHT22;11708;50.570;8.532;2023-01-24T00:55:24;2.80;99.90
23081;DHT22;11708;50.570;8.532;2023-01-24T00:57:49;2.80;99.90
23081;DHT22;11708;50.570;8.532;2023-01-24T01:00:15;2.80;99.90
23081;DHT22;11708;50.570;8.532;2023-01-24T01:02:41;2.80;99.90
23081;DHT22;11708;50.570;8.532;2023-01-24T01:05:07;2.80;99.90
23081;DHT22;11708;50.570;8.532;2023-01-24T01:07:32;2.80;99.90
23081;DHT22;11708;50.570;8.532;2023-01-24T01:09:58;2.80;99.90
23081;DHT22;11708;50.570;8.532;2023-01-24T01:14:49;2.80;99.90
23081;DHT22;11708;50.570;8.532;2023-01-24T01:17:15;2.80;99.90
23081;DHT22;11708;50.570;8.532;2023-01-24T01:19:42;3.00;99.90
23081;DHT22;11708;50.570;8.532;2023-01-24T01:22:07;2.80;99.90
23081;DHT22;11708;50.570;8.532;2023-01-24T01:24:34;2.80;99.90
23081;DHT22;11708;50.570;8.532;2023-01-24T01:27:00;2.80;99.90
23081;DHT22;11708;50.570;8.532;2023-01-24T01:29:25;2.80;99.90
23081;DHT22;11708;50.570;8.532;2023-01-24T01:31:51;2.80;99.90
23081;DHT22;11708;50.570;8.532;2023-01-24T01:34:17;2.80;99.90
23081;DHT22;11708;50.570;8.532;2023-01-24T01:36:42;2.80;99.90
23081;DHT22;11708;50.570;8.532;2023-01-24T01:39:08;2.90;99.90
23081;DHT22;11708;50.570;8.532;2023-01-24T01:41:33;2.80;99.90
23081;DHT22;11708;50.570;8.532;2023-01-24T01:44:25;2.90;99.90
23081;DHT22;11708;50.570;8.532;2023-01-24T01:49:31;3.20;99.90
23081;DHT22;11708;50.570;8.532;2023-01-24T01:52:02;2.80;99.90
23081;DHT22;11708;50.570;8.532;2023-01-24T01:54:31;2.80;99.90
23081;DHT22;11708;50.570;8.532;2023-01-24T01:56:59;2.90;99.90
23081;DHT22;11708;50.570;8.532;2023-01-24T01:59:30;2.90;99.90
23081;DHT22;11708;50.570;8.532;2023-01-24T02:01:57;2.90;99.90
23081;DHT22;11708;50.570;8.532;2023-01-24T02:04:28;2.90;99.90
23081;DHT22;11708;50.570;8.532;2023-01-24T02:09:40;2.80;99.90
23081;DHT22;11708;50.570;8.532;2023-01-24T02:12:19;2.90;99.90
23081;DHT22;11708;50.570;8.532;2023-01-24T02:14:47;2.90;99.90
23081;DHT22;11708;50.570;8.532;2023-01-24T02:17:32;2.90;99.90
23081;DHT22;11708;50.570;8.532;2023-01-24T02:25:24;2.90;99.90
23081;DHT22;11708;50.570;8.532;2023-01-24T02:27:51;2.90;99.90
23081;DHT22;11708;50.570;8.532;2023-01-24T02:30:18;2.90;99.90
23081;DHT22;11708;50.570;8.532;2023-01-24T02:32:43;2.90;99.90
23081;DHT22;11708;50.570;8.532;2023-01-24T02:35:27;2.90;99.90
23081;DHT22;11708;50.570;8.532;2023-01-24T02:37:53;2.90;99.90
23081;DHT22;11708;50.570;8.532;2023-01-24T02:40:19;2.90;99.90
23081;DHT22;11708;50.570;8.532;2023-01-24T02:42:45;2.90;99.90
23081;DHT22;11708;50.570;8.532;2023-01-24T02:45:28;2.90;99.90
23081;DHT22;11708;50.570;8.532;2023-01-24T02:47:55;2.90;99.90
23081;DHT22;11708;50.570;8.532;2023-01-24T02:50:26;2.90;99.90
23081;DHT22;11708;50.570;8.532;2023-01-24T02:52:53;2.90;99.90
23081;DHT22;11708;50.570;8.532;2023-01-24T02:55:37;2.90;99.90
23081;DHT22;11708;50.570;8.532;2023-01-24T02:58:22;2.90;99.90
23081;DHT22;11708;50.570;8.532;2023-01-24T03:00:48;2.90;99.90
23081;DHT22;11708;50.570;8.532;2023-01-24T03:03:14;2.90;99.90
23081;DHT22;11708;50.570;8.532;2023-01-24T03:05:40;2.90;99.90
23081;DHT22;11708;50.570;8.532;2023-01-24T03:08:18;2.90;99.90
23081;DHT22;11708;50.570;8.532;2023-01-24T03:10:44;2.90;99.90
23081;DHT22;11708;50.570;8.532;2023-01-24T03:13:12;2.90;99.90
23081;DHT22;11708;50.570;8.532;2023-01-24T03:15:59;2.90;99.90
23081;DHT22;11708;50.570;8.532;2023-01-24T03:18:43;2.90;99.90
23081;DHT22;11708;50.570;8.532;2023-01-24T03:21:27;2.90;99.90
23081;DHT22;11708;50.570;8.532;2023-01-24T03:24:11;2.90;99.90
23081;DHT22;11708;50.570;8.532;2023-01-24T03:26:54;3.00;99.90
23081;DHT22;11708;50.570;8.532;2023-01-24T03:29:38;2.70;99.90
23081;DHT22;11708;50.570;8.532;2023-01-24T03:32:22;2.90;99.90
23081;DHT22;11708;50.570;8.532;2023-01-24T03:35:07;2.90;99.90
23081;DHT22;11708;50.570;8.532;2023-01-24T03:37:32;2.90;99.90
23081;DHT22;11708;50.570;8.532;2023-01-24T03:40:16;2.90;99.90
23081;DHT22;11708;50.570;8.532;2023-01-24T03:42:42;2.90;99.90
23081;DHT22;11708;50.570;8.532;2023-01-24T03:45:15;2.80;99.90
23081;DHT22;11708;50.570;8.532;2023-01-24T03:47:47;2.80;99.90
23081;DHT22;11708;50.570;8.532;2023-01-24T03:50:21;2.80;99.90
23081;DHT22;11708;50.570;8.532;2023-01-24T03:53:06;2.80;99.90
23081;DHT22;11708;50.570;8.532;2023-01-24T03:55:32;2.80;99.90
23081;DHT22;11708;50.570;8.532;2023-01-24T03:57:58;2.80;99.90
23081;DHT22;11708;50.570;8.532;2023-01-24T04:00:24;2.80;99.90
23081;DHT22;11708;50.570;8.532;2023-01-24T04:02:49;2.80;99.90
23081;DHT22;11708;50.570;8.532;2023-01-24T04:05:15;2.80;99.90
23081;DHT22;11708;50.570;8.532;2023-01-24T04:07:41;2.80;99.90
23081;DHT22;11708;50.570;8.532;2023-01-24T04:10:07;2.80;99.90
23081;DHT22;11708;50.570;8.532;2023-01-24T04:12:33;2.80;99.90
23081;DHT22;11708;50.570;8.532;2023-01-24T04:14:59;2.80;99.90
23081;DHT22;11708;50.570;8.532;2023-01-24T04:17:25;2.80;99.90
23081;DHT22;11708;50.570;8.532;2023-01-24T04:19:50;2.80;99.90
23081;DHT22;11708;50.570;8.532;2023-01-24T04:22:16;2.80;99.90
23081;DHT22;11708;50.570;8.532;2023-01-24T04:24:43;2.80;99.90
23081;DHT22;11708;50.570;8.532;2023-01-24T04:27:09;2.80;99.90
23081;DHT22;11708;50.570;8.532;2023-01-24T04:29:34;2.90;99.90
23081;DHT22;11708;50.570;8.532;2023-01-24T04:32:00;2.90;99.90
23081;DHT22;11708;50.570;8.532;2023-01-24T04:34:25;2.90;99.90
23081;DHT22;11708;50.570;8.532;2023-01-24T04:36:51;2.80;99.90
23081;DHT22;11708;50.570;8.532;2023-01-24T04:39:16;2.80;99.90
23081;DHT22;11708;50.570;8.532;2023-01-24T04:41:42;2.80;99.90
23081;DHT22;11708;50.570;8.532;2023-01-24T04:44:07;2.80;99.90
23081;DHT22;11708;50.570;8.532;2023-01-24T04:46:33;2.80;99.90
23081;DHT22;11708;50.570;8.532;2023-01-24T04:48:58;2.80;99.90
23081;DHT22;11708;50.570;8.532;2023-01-24T04:51:24;2.90;99.90
23081;DHT22;11708;50.570;8.532;2023-01-24T04:53:49;2.80;99.90
23081;DHT22;11708;50.570;8.532;2023-01-24T04:56:15;2.80;99.90
23081;DHT22;11708;50.570;8.532;2023-01-24T04:58:40;2.80;99.90
23081;DHT22;11708;50.570;8.532;2023-01-24T05:01:06;2.80;99.90
23081;DHT22;11708;50.570;8.532;2023-01-24T05:03:32;2.80;99.90
23081;DHT22;11708;50.570;8.532;2023-01-24T05:05:57;2.80;99.90
23081;DHT22;11708;50.570;8.532;2023-01-24T05:08:23;2.80;99.90
23081;DHT22;11708;50.570;8.532;2023-01-24T05:10:48;2.80;99.90
23081;DHT22;11708;50.570;8.532;2023-01-24T05:13:14;2.80;99.90
23081;DHT22;11708;50.570;8.532;2023-01-24T05:15:49;2.80;99.90
23081;DHT22;11708;50.570;8.532;2023-01-24T05:18:14;2.80;99.90
23081;DHT22;11708;50.570;8.532;2023-01-24T05:23:06;2.80;99.90
23081;DHT22;11708;50.570;8.532;2023-01-24T05:25:31;2.80;99.90
23081;DHT22;11708;50.570;8.532;2023-01-24T05:27:57;2.80;99.90
23081;DHT22;11708;50.570;8.532;2023-01-24T05:30:22;2.80;99.90
23081;DHT22;11708;50.570;8.532;2023-01-24T05:32:48;2.80;99.90
23081;DHT22;11708;50.570;8.532;2023-01-24T05:35:14;2.80;99.90
23081;DHT22;11708;50.570;8.532;2023-01-24T05:37:39;2.80;99.90
23081;DHT22;11708;50.570;8.532;2023-01-24T05:40:06;2.80;99.90
23081;DHT22;11708;50.570;8.532;2023-01-24T05:42:32;2.80;99.90
23081;DHT22;11708;50.570;8.532;2023-01-24T05:44:58;2.80;99.90
23081;DHT22;11708;50.570;8.532;2023-01-24T05:47:24;2.80;99.90
23081;DHT22;11708;50.570;8.532;2023-01-24T05:49:50;2.60;99.90
23081;DHT22;11708;50.570;8.532;2023-01-24T05:52:17;2.80;99.90
23081;DHT22;11708;50.570;8.532;2023-01-24T05:54:50;2.80;99.90
23081;DHT22;11708;50.570;8.532;2023-01-24T05:57:16;2.80;99.90
23081;DHT22;11708;50.570;8.532;2023-01-24T05:59:42;3.00;99.90
23081;DHT22;11708;50.570;8.532;2023-01-24T06:02:07;2.80;99.90
23081;DHT22;11708;50.570;8.532;2023-01-24T06:04:33;2.80;99.90
23081;DHT22;11708;50.570;8.532;2023-01-24T06:06:58;2.80;99.90
23081;DHT22;11708;50.570;8.532;2023-01-24T06:09:24;2.80;99.90
23081;DHT22;11708;50.570;8.532;2023-01-24T06:11:49;2.80;99.90
23081;DHT22;11708;50.570;8.532;2023-01-24T06:14:15;2.80;99.90
23081;DHT22;11708;50.570;8.532;2023-01-24T06:16:43;2.80;99.90
23081;DHT22;11708;50.570;8.532;2023-01-24T06:19:10;2.80;99.90
23081;DHT22;11708;50.570;8.532;2023-01-24T06:21:48;2.80;99.90
23081;DHT22;11708;50.570;8.532;2023-01-24T06:24:23;2.80;99.90
23081;DHT22;11708;50.570;8.532;2023-01-24T06:26:51;2.80;99.90
23081;DHT22;11708;50.570;8.532;2023-01-24T06:29:18;2.80;99.90
23081;DHT22;11708;50.570;8.532;2023-01-24T06:31:47;2.80;99.90
23081;DHT22;11708;50.570;8.532;2023-01-24T06:37:47;2.80;99.90
23081;DHT22;11708;50.570;8.532;2023-01-24T06:40:16;2.80;99.90
23081;DHT22;11708;50.570;8.532;2023-01-24T06:42:42;2.80;99.90
23081;DHT22;11708;50.570;8.532;2023-01-24T06:45:08;2.80;99.90
23081;DHT22;11708;50.570;8.532;2023-01-24T06:47:34;2.80;99.90
23081;DHT22;11708;50.570;8.532;2023-01-24T06:49:59;2.80;99.90
23081;DHT22;11708;50.570;8.532;2023-01-24T06:52:27;2.80;99.90
23081;DHT22;11708;50.570;8.532;2023-01-24T06:54:53;2.80;99.90
23081;DHT22;11708;50.570;8.532;2023-01-24T06:57:18;2.80;99.90
23081;DHT22;11708;50.570;8.532;2023-01-24T06:59:44;2.50;99.90
23081;DHT22;11708;50.570;8.532;2023-01-24T07:02:10;2.70;99.90
23081;DHT22;11708;50.570;8.532;2023-01-24T07:04:35;2.80;99.90
23081;DHT22;11708;50.570;8.532;2023-01-24T07:07:02;2.80;99.90
23081;DHT22;11708;50.570;8.532;2023-01-24T07:09:28;2.80;99.90
23081;DHT22;11708;50.570;8.532;2023-01-24T07:11:54;2.70;99.90
23081;DHT22;11708;50.570;8.532;2023-01-24T07:14:22;2.70;99.90
23081;DHT22;11708;50.570;8.532;2023-01-24T07:16:49;2.70;99.90
23081;DHT22;11708;50.570;8.532;2023-01-24T07:19:20;2.70;99.90
23081;DHT22;11708;50.570;8.532;2023-01-24T07:21:50;2.70;99.90
23081;DHT22;11708;50.570;8.532;2023-01-24T07:24:20;2.70;99.90
23081;DHT22;11708;50.570;8.532;2023-01-24T07:26:46;2.80;99.90
23081;DHT22;11708;50.570;8.532;2023-01-24T07:29:13;2.80;99.90
23081;DHT22;11708;50.570;8.532;2023-01-24T07:31:39;2.80;99.90
23081;DHT22;11708;50.570;8.532;2023-01-24T07:34:05;2.80;99.90
23081;DHT22;11708;50.570;8.532;2023-01-24T07:36:30;2.80;99.90
23081;DHT22;11708;50.570;8.532;2023-01-24T07:38:56;2.80;99.90
23081;DHT22;11708;50.570;8.532;2023-01-24T07:41:22;2.80;99.90
23081;DHT22;11708;50.570;8.532;2023-01-24T07:43:48;2.80;99.90
23081;DHT22;11708;50.570;8.532;2023-01-24T07:46:14;2.80;99.90
23081;DHT22;11708;50.570;8.532;2023-01-24T07:48:39;2.80;99.90
23081;DHT22;11708;50.570;8.532;2023-01-24T07:51:05;2.80;99.90
23081;DHT22;11708;50.570;8.532;2023-01-24T07:53:31;2.80;99.90
23081;DHT22;11708;50.570;8.532;2023-01-24T07:56:01;2.80;99.90
23081;DHT22;11708;50.570;8.532;2023-01-24T07:58:27;2.80;99.90
23081;DHT22;11708;50.570;8.532;2023-01-24T08:03:19;2.90;99.90
23081;DHT22;11708;50.570;8.532;2023-01-24T08:05:44;2.90;99.90
23081;DHT22;11708;50.570;8.532;2023-01-24T08:08:10;2.80;99.90
23081;DHT22;11708;50.570;8.532;2023-01-24T08:10:35;2.90;99.90
23081;DHT22;11708;50.570;8.532;2023-01-24T08:13:01;2.90;99.90
23081;DHT22;11708;50.570;8.532;2023-01-24T08:15:27;2.90;99.90
23081;DHT22;11708;50.570;8.532;2023-01-24T08:17:52;2.90;99.90
23081;DHT22;11708;50.570;8.532;2023-01-24T08:20:18;2.90;99.90
23081;DHT22;11708;50.570;8.532;2023-01-24T08:22:44;2.90;99.90
23081;DHT22;11708;50.570;8.532;2023-01-24T08:25:11;2.80;99.90
23081;DHT22;11708;50.570;8.532;2023-01-24T08:27:40;2.90;99.90
23081;DHT22;11708;50.570;8.532;2023-01-24T08:30:07;2.80;99.90
23081;DHT22;11708;50.570;8.532;2023-01-24T08:32:33;2.80;99.90
23081;DHT22;11708;50.570;8.532;2023-01-24T08:34:58;2.80;99.90
23081;DHT22;11708;50.570;8.532;2023-01-24T08:37:24;2.80;99.90
23081;DHT22;11708;50.570;8.532;2023-01-24T08:39:49;2.70;99.90
23081;DHT22;11708;50.570;8.532;2023-01-24T08:42:15;2.90;99.90
23081;DHT22;11708;50.570;8.532;2023-01-24T08:44:40;2.90;99.90
23081;DHT22;11708;50.570;8.532;2023-01-24T08:47:06;2.90;99.90
23081;DHT22;11708;50.570;8.532;2023-01-24T08:49:31;3.20;99.90
23081;DHT22;11708;50.570;8.532;2023-01-24T08:51:57;2.90;99.90
23081;DHT22;11708;50.570;8.532;2023-01-24T08:54:27;2.90;99.90
23081;DHT22;11708;50.570;8.532;2023-01-24T08:56:53;2.90;99.90
23081;DHT22;11708;50.570;8.532;2023-01-24T08:59:19;2.90;99.90
23081;DHT22;11708;50.570;8.532;2023-01-24T09:01:44;2.90;99.90
23081;DHT22;11708;50.570;8.532;2023-01-24T09:04:13;3.00;99.90
23081;DHT22;11708;50.570;8.532;2023-01-24T09:06:39;3.00;99.90
23081;DHT22;11708;50.570;8.532;2023-01-24T09:09:04;3.00;99.90
23081;DHT22;11708;50.570;8.532;2023-01-24T09:11:31;3.00;99.90
23081;DHT22;11708;50.570;8.532;2023-01-24T09:13:57;3.00;99.90
23081;DHT22;11708;50.570;8.532;2023-01-24T09:16:23;3.00;99.90
23081;DHT22;11708;50.570;8.532;2023-01-24T09:18:48;3.00;99.90
23081;DHT22;11708;50.570;8.532;2023-01-24T09:21:19;3.00;99.90
23081;DHT22;11708;50.570;8.532;2023-01-24T09:23:45;3.00;99.90
23081;DHT22;11708;50.570;8.532;2023-01-24T09:26:11;3.00;99.90
23081;DHT22;11708;50.570;8.532;2023-01-24T09:28:36;3.00;99.90
23081;DHT22;11708;50.570;8.532;2023-01-24T09:31:02;3.00;99.90
23081;DHT22;11708;50.570;8.532;2023-01-24T09:33:29;3.00;99.90
23081;DHT22;11708;50.570;8.532;2023-01-24T09:35:56;3.00;99.90
23081;DHT22;11708;50.570;8.532;2023-01-24T09:38:23;3.10;99.90
23081;DHT22;11708;50.570;8.532;2023-01-24T09:41:03;3.10;99.90
23081;DHT22;11708;50.570;8.532;2023-01-24T09:43:41;3.10;99.90
23081;DHT22;11708;50.570;8.532;2023-01-24T09:46:27;3.10;99.90
23081;DHT22;11708;50.570;8.532;2023-01-24T09:49:03;3.10;99.90
23081;DHT22;11708;50.570;8.532;2023-01-24T09:51:32;3.10;99.90
23081;DHT22;11708;50.570;8.532;2023-01-24T09:54:04;3.10;99.90
23081;DHT22;11708;50.570;8.532;2023-01-24T09:56:36;3.10;99.90
23081;DHT22;11708;50.570;8.532;2023-01-24T09:59:16;3.10;99.90
23081;DHT22;11708;50.570;8.532;2023-01-24T10:01:46;3.10;99.90
23081;DHT22;11708;50.570;8.532;2023-01-24T10:04:21;3.10;99.90
23081;DHT22;11708;50.570;8.532;2023-01-24T10:10:16;3.10;99.90
23081;DHT22;11708;50.570;8.532;2023-01-24T10:13:00;3.10;99.90
23081;DHT22;11708;50.570;8.532;2023-01-24T10:21:24;3.10;99.90
23081;DHT22;11708;50.570;8.532;2023-01-24T10:23:58;3.10;99.90
23081;DHT22;11708;50.570;8.532;2023-01-24T10:26:37;3.10;99.90
23081;DHT22;11708;50.570;8.532;2023-01-24T10:29:14;3.10;99.90
23081;DHT22;11708;50.570;8.532;2023-01-24T10:31:46;3.10;99.90
23081;DHT22;11708;50.570;8.532;2023-01-24T10:39:36;3.00;99.90
23081;DHT22;11708;50.570;8.532;2023-01-24T10:44:31;3.10;99.90
23081;DHT22;11708;50.570;8.532;2023-01-24T10:49:29;3.20;99.90
23081;DHT22;11708;50.570;8.532;2023-01-24T10:52:16;3.20;99.90
23081;DHT22;11708;50.570;8.532;2023-01-24T10:54:54;3.20;99.90
23081;DHT22;11708;50.570;8.532;2023-01-24T11:00:06;3.20;99.90
23081;DHT22;11708;50.570;8.532;2023-01-24T11:02:39;3.20;99.90
23081;DHT22;11708;50.570;8.532;2023-01-24T11:05:06;3.20;99.90
23081;DHT22;11708;50.570;8.532;2023-01-24T11:07:33;3.20;99.90
23081;DHT22;11708;50.570;8.532;2023-01-24T11:15:33;3.30;99.90
23081;DHT22;11708;50.570;8.532;2023-01-24T11:20:33;3.30;99.90
23081;DHT22;11708;50.570;8.532;2023-01-24T11:23:17;3.30;99.90
23081;DHT22;11708;50.570;8.532;2023-01-24T11:25:56;3.30;99.90
23081;DHT22;11708;50.570;8.532;2023-01-24T11:28:26;3.30;99.90
23081;DHT22;11708;50.570;8.532;2023-01-24T11:30:54;3.30;99.90
23081;DHT22;11708;50.570;8.532;2023-01-24T11:33:49;3.30;99.90
23081;DHT22;11708;50.570;8.532;2023-01-24T11:38:49;3.30;99.90
23081;DHT22;11708;50.570;8.532;2023-01-24T11:41:30;3.30;99.90
23081;DHT22;11708;50.570;8.532;2023-01-24T11:44:48;3.30;99.90
23081;DHT22;11708;50.570;8.532;2023-01-24T11:47:20;3.30;99.90
23081;DHT22;11708;50.570;8.532;2023-01-24T11:52:52;3.30;99.90
23081;DHT22;11708;50.570;8.532;2023-01-24T12:01:03;3.40;99.90
23081;DHT22;11708;50.570;8.532;2023-01-24T12:06:51;3.40;99.90
23081;DHT22;11708;50.570;8.532;2023-01-24T12:09:22;3.50;99.90
23081;DHT22;11708;50.570;8.532;2023-01-24T12:17:49;3.50;99.90
23081;DHT22;11708;50.570;8.532;2023-01-24T12:23:32;3.40;99.90
23081;DHT22;11708;50.570;8.532;2023-01-24T12:26:05;3.40;99.90
23081;DHT22;11708;50.570;8.532;2023-01-24T12:28:36;3.40;99.90
23081;DHT22;11708;50.570;8.532;2023-01-24T12:31:04;3.40;99.90
23081;DHT22;11708;50.570;8.532;2023-01-24T12:33:49;3.40;99.90
23081;DHT22;11708;50.570;8.532;2023-01-24T12:38:58;3.40;99.90
23081;DHT22;11708;50.570;8.532;2023-01-24T12:41:34;3.40;99.90
23081;DHT22;11708;50.570;8.532;2023-01-24T12:46:48;3.40;99.90
23081;DHT22;11708;50.570;8.532;2023-01-24T12:52:42;3.20;99.90
23081;DHT22;11708;50.570;8.532;2023-01-24T12:55:19;3.50;99.90
23081;DHT22;11708;50.570;8.532;2023-01-24T12:58:10;3.50;99.90
23081;DHT22;11708;50.570;8.532;2023-01-24T13:06:34;3.50;99.90
23081;DHT22;11708;50.570;8.532;2023-01-24T13:11:49;3.40;99.90
23081;DHT22;11708;50.570;8.532;2023-01-24T13:14:42;3.40;99.90
23081;DHT22;11708;50.570;8.532;2023-01-24T13:18:11;3.60;99.90
23081;DHT22;11708;50.570;8.532;2023-01-24T13:25:37;3.40;99.90
23081;DHT22;11708;50.570;8.532;2023-01-24T13:28:22;3.40;99.90
23081;DHT22;11708;50.570;8.532;2023-01-24T13:33:56;3.40;99.90
23081;DHT22;11708;50.570;8.532;2023-01-24T13:36:24;3.40;99.90
23081;DHT22;11708;50.570;8.532;2023-01-24T13:38:51;3.40;99.90
23081;DHT22;11708;50.570;8.532;2023-01-24T13:41:33;3.40;99.90
23081;DHT22;11708;50.570;8.532;2023-01-24T13:51:46;3.40;99.90
23081;DHT22;11708;50.570;8.532;2023-01-24T13:59:38;3.50;99.90
23081;DHT22;11708;50.570;8.532;2023-01-24T14:02:33;3.30;99.90
23081;DHT22;11708;50.570;8.532;2023-01-24T14:05:00;3.40;99.90
23081;DHT22;11708;50.570;8.532;2023-01-24T14:07:46;3.40;99.90
23081;DHT22;11708;50.570;8.532;2023-01-24T14:10:11;3.30;99.90
23081;DHT22;11708;50.570;8.532;2023-01-24T14:12:39;3.30;99.90
23081;DHT22;11708;50.570;8.532;2023-01-24T14:22:57;3.30;99.90
23081;DHT22;11708;50.570;8.532;2023-01-24T14:25:40;3.30;99.90
23081;DHT22;11708;50.570;8.532;2023-01-24T14:28:38;3.30;99.90
23081;DHT22;11708;50.570;8.532;2023-01-24T14:31:31;3.30;99.90
23081;DHT22;11708;50.570;8.532;2023-01-24T14:36:38;3.20;99.90
23081;DHT22;11708;50.570;8.532;2023-01-24T14:39:23;3.20;99.90
23081;DHT22;11708;50.570;8.532;2023-01-24T14:42:00;3.20;99.90
23081;DHT22;11708;50.570;8.532;2023-01-24T14:49:53;3.20;99.90
23081;DHT22;11708;50.570;8.532;2023-01-24T14:52:25;3.20;99.90
23081;DHT22;11708;50.570;8.532;2023-01-24T14:54:59;3.20;99.90
23081;DHT22;11708;50.570;8.532;2023-01-24T15:02:38;3.20;99.90
23081;DHT22;11708;50.570;8.532;2023-01-24T15:05:38;3.10;99.90
23081;DHT22;11708;50.570;8.532;2023-01-24T15:08:06;3.10;99.90
23081;DHT22;11708;50.570;8.532;2023-01-24T15:10:40;3.20;99.90
23081;DHT22;11708;50.570;8.532;2023-01-24T15:13:17;3.10;99.90
23081;DHT22;11708;50.570;8.532;2023-01-24T15:15:44;3.20;99.90
23081;DHT22;11708;50.570;8.532;2023-01-24T15:18:36;3.20;99.90
23081;DHT22;11708;50.570;8.532;2023-01-24T15:21:03;3.20;99.90
23081;DHT22;11708;50.570;8.532;2023-01-24T15:23:31;3.20;99.90
23081;DHT22;11708;50.570;8.532;2023-01-24T15:28:28;3.10;99.90
23081;DHT22;11708;50.570;8.532;2023-01-24T15:31:01;3.20;99.90
23081;DHT22;11708;50.570;8.532;2023-01-24T15:33:41;3.20;99.90
23081;DHT22;11708;50.570;8.532;2023-01-24T15:36:26;3.10;99.90
23081;DHT22;11708;50.570;8.532;2023-01-24T15:38:53;3.10;99.90
23081;DHT22;11708;50.570;8.532;2023-01-24T15:41:24;3.10;99.90
23081;DHT22;11708;50.570;8.532;2023-01-24T15:44:10;3.10;99.90
23081;DHT22;11708;50.570;8.532;2023-01-24T15:46:40;3.10;99.90
23081;DHT22;11708;50.570;8.532;2023-01-24T15:49:40;3.00;99.90
23081;DHT22;11708;50.570;8.532;2023-01-24T15:52:21;3.00;99.90
23081;DHT22;11708;50.570;8.532;2023-01-24T15:54:54;3.00;99.90
23081;DHT22;11708;50.570;8.532;2023-01-24T15:57:43;3.00;99.90
23081;DHT22;11708;50.570;8.532;2023-01-24T16:02:33;3.00;99.90
23081;DHT22;11708;50.570;8.532;2023-01-24T16:05:00;3.00;99.90
23081;DHT22;11708;50.570;8.532;2023-01-24T16:07:26;2.90;99.90
23081;DHT22;11708;50.570;8.532;2023-01-24T16:09:51;2.90;99.90
23081;DHT22;11708;50.570;8.532;2023-01-24T16:12:21;2.90;99.90
23081;DHT22;11708;50.570;8.532;2023-01-24T16:14:52;2.90;99.90
23081;DHT22;11708;50.570;8.532;2023-01-24T16:17:19;2.90;99.90
23081;DHT22;11708;50.570;8.532;2023-01-24T16:19:46;3.00;99.90
23081;DHT22;11708;50.570;8.532;2023-01-24T16:22:12;2.90;99.90
23081;DHT22;11708;50.570;8.532;2023-01-24T16:24:38;2.90;99.90
23081;DHT22;11708;50.570;8.532;2023-01-24T16:27:04;2.90;99.90
23081;DHT22;11708;50.570;8.532;2023-01-24T16:29:30;2.90;99.90
23081;DHT22;11708;50.570;8.532;2023-01-24T16:31:55;2.90;99.90
23081;DHT22;11708;50.570;8.532;2023-01-24T16:34:21;2.90;99.90
23081;DHT22;11708;50.570;8.532;2023-01-24T16:36:47;2.90;99.90
23081;DHT22;11708;50.570;8.532;2023-01-24T16:39:20;2.90;99.90
23081;DHT22;11708;50.570;8.532;2023-01-24T16:41:48;2.90;99.90
23081;DHT22;11708;50.570;8.532;2023-01-24T16:44:15;2.80;99.90
23081;DHT22;11708;50.570;8.532;2023-01-24T16:46:47;2.90;99.90
23081;DHT22;11708;50.570;8.532;2023-01-24T16:49:14;2.80;99.90
23081;DHT22;11708;50.570;8.532;2023-01-24T16:51:39;2.80;99.90
23081;DHT22;11708;50.570;8.532;2023-01-24T16:54:05;2.80;99.90
23081;DHT22;11708;50.570;8.532;2023-01-24T16:56:30;2.90;99.90
23081;DHT22;11708;50.570;8.532;2023-01-24T16:58:56;2.80;99.90
23081;DHT22;11708;50.570;8.532;2023-01-24T17:01:21;2.90;99.90
23081;DHT22;11708;50.570;8.532;2023-01-24T17:03:51;2.80;99.90
23081;DHT22;11708;50.570;8.532;2023-01-24T17:06:17;2.80;99.90
23081;DHT22;11708;50.570;8.532;2023-01-24T17:08:43;2.80;99.90
23081;DHT22;11708;50.570;8.532;2023-01-24T17:11:10;2.80;99.90
23081;DHT22;11708;50.570;8.532;2023-01-24T17:13:36;2.80;99.90
23081;DHT22;11708;50.570;8.532;2023-01-24T17:16:07;2.80;99.90
23081;DHT22;11708;50.570;8.532;2023-01-24T17:18:37;2.80;99.90
23081;DHT22;11708;50.570;8.532;2023-01-24T17:21:14;2.80;99.90
23081;DHT22;11708;50.570;8.532;2023-01-24T17:23:40;2.80;99.90
23081;DHT22;11708;50.570;8.532;2023-01-24T17:26:11;2.70;99.90
23081;DHT22;11708;50.570;8.532;2023-01-24T17:28:38;2.70;99.90
23081;DHT22;11708;50.570;8.532;2023-01-24T17:31:09;2.70;99.90
23081;DHT22;11708;50.570;8.532;2023-01-24T17:33:35;2.80;99.90
23081;DHT22;11708;50.570;8.532;2023-01-24T17:36:00;2.70;99.90
23081;DHT22;11708;50.570;8.532;2023-01-24T17:38:26;2.70;99.90
23081;DHT22;11708;50.570;8.532;2023-01-24T17:40:52;2.70;99.90
23081;DHT22;11708;50.570;8.532;2023-01-24T17:43:18;2.70;99.90
23081;DHT22;11708;50.570;8.532;2023-01-24T17:45:54;2.70;99.90
23081;DHT22;11708;50.570;8.532;2023-01-24T17:48:20;2.70;99.90
23081;DHT22;11708;50.570;8.532;2023-01-24T17:50:46;2.70;99.90
23081;DHT22;11708;50.570;8.532;2023-01-24T17:53:13;2.70;99.90
23081;DHT22;11708;50.570;8.532;2023-01-24T17:55:39;2.70;99.90
23081;DHT22;11708;50.570;8.532;2023-01-24T17:58:04;2.70;99.90
23081;DHT22;11708;50.570;8.532;2023-01-24T18:00:30;2.70;99.90
23081;DHT22;11708;50.570;8.532;2023-01-24T18:02:56;2.60;99.90
23081;DHT22;11708;50.570;8.532;2023-01-24T18:05:21;2.60;99.90
23081;DHT22;11708;50.570;8.532;2023-01-24T18:07:48;2.60;99.90
23081;DHT22;11708;50.570;8.532;2023-01-24T18:10:13;2.60;99.90
23081;DHT22;11708;50.570;8.532;2023-01-24T18:12:40;2.60;99.90
23081;DHT22;11708;50.570;8.532;2023-01-24T18:15:06;2.60;99.90
23081;DHT22;11708;50.570;8.532;2023-01-24T18:19:58;2.60;99.90
23081;DHT22;11708;50.570;8.532;2023-01-24T18:22:23;2.60;99.90
23081;DHT22;11708;50.570;8.532;2023-01-24T18:24:49;2.70;99.90
23081;DHT22;11708;50.570;8.532;2023-01-24T18:27:14;2.60;99.90